Erkan-2 — TC6588 — position and weather

sailwx.info

Track history (hours):
 
Tides and Currents Weather Stations Pressure Air Temp Water Temp Dewpoint Dewpoint Depression Visibility Wind Speed Wind Dir Waves Ship Positions

Erkan-2

Last reported at 2018-Mar-12 04:37 UTC. Time now 2018-Jun-20 09:32 UTC.
Position N 36°53' E 030°42'.
Warning: this ship's position is months out of date.

Length 19 m.

Type: Passenger vessel. MMSI: 271041084.

Date/timePositionNaut miles runAvg speedWind from/ knotsBaromVisibWave heightAir tempDewpointWater temp
2018-Mar-12 04:37N 36°53' E 030°42'0 0.0
2018-Mar-12 04:07N 36°53' E 030°42'0 0.0
2018-Mar-12 03:43N 36°53' E 030°42'0 0.0
2018-Mar-12 03:13N 36°53' E 030°42'0 0.0
2018-Mar-11 05:29N 36°53' E 030°42'1 2.6
2018-Mar-11 04:59N 36°52' E 030°43'1 0.1
2018-Mar-10 13:01N 36°53' E 030°42'0 0.3
2018-Mar-10 13:00N 36°53' E 030°42'2 3.4
2018-Mar-10 12:28N 36°51' E 030°43'2 1.5
2018-Mar-10 11:17N 36°53' E 030°42'1 3.6
2018-Mar-10 11:00N 36°52' E 030°43'1 0.1
2018-Mar-09 15:46N 36°53' E 030°42'1 4.5
2018-Mar-09 15:30N 36°52' E 030°42'0 0.9
2018-Mar-09 15:00N 36°52' E 030°42'1 0.4
2018-Mar-09 13:01N 36°53' E 030°42'1 5.3
2018-Mar-09 12:47N 36°52' E 030°43'1 0.7
2018-Mar-09 11:38N 36°51' E 030°44'1 7.0
2018-Mar-09 11:29N 36°52' E 030°43'0 0.0
2018-Mar-09 05:57N 36°52' E 030°43'0 0.0
2018-Mar-07 05:07N 36°53' E 030°42'1 5.3
2018-Mar-07 04:55N 36°52' E 030°43'1 0.1
2018-Mar-06 14:23N 36°53' E 030°42'1 2.5
2018-Mar-06 13:59N 36°52' E 030°43'1 0.1
2018-Mar-06 09:14N 36°52' E 030°42'0 1.1
2018-Mar-06 08:59N 36°52' E 030°42'1 0.5
2018-Mar-06 07:14N 36°53' E 030°42'0 2.1
2018-Mar-06 07:00N 36°53' E 030°42'0 0.0
2018-Mar-05 05:15N 36°52' E 030°43'1 2.2
2018-Mar-05 05:00N 36°52' E 030°43'1 0.1
2018-Mar-04 15:23N 36°53' E 030°42'2 3.9
2018-Mar-04 14:59N 36°51' E 030°43'2 0.5
2018-Mar-04 11:48N 36°53' E 030°42'1 2.6
2018-Mar-04 11:23N 36°52' E 030°43'1 0.0
2018-Mar-03 12:38N 36°53' E 030°42'1 7.0
2018-Mar-03 12:30N 36°52' E 030°43'2 2.2
2018-Mar-03 11:36N 36°51' E 030°45'1 5.7
2018-Mar-03 11:23N 36°51' E 030°44'2 0.3
2018-Mar-03 05:25N 36°53' E 030°42'1 1.9
2018-Mar-03 05:00N 36°52' E 030°42'1 0.0
2018-Mar-02 14:33N 36°52' E 030°43'0 4.2
2018-Mar-02 14:30N 36°52' E 030°43'2 1.0
2018-Mar-02 12:20N 36°51' E 030°45'3 6.6
2018-Mar-02 11:57N 36°52' E 030°43'  
Track history (hours):
 
Tides and Currents Weather Stations Pressure Air Temp Water Temp Dewpoint Dewpoint Depression Visibility Wind Speed Wind Dir Waves Ship Positions

Erkan-2

Last reported at 2018-Mar-12 04:37 UTC. Time now 2018-Jun-20 09:32 UTC.
Position N 36°53' E 030°42'.
Warning: this ship's position is months out of date.

Length 19 m.

Type: Passenger vessel. MMSI: 271041084.

Date/timePositionNaut miles runAvg speedWind from/ knotsBaromVisibWave heightAir tempDewpointWater temp
2018-Mar-12 04:37N 36°53' E 030°42'0 0.0
2018-Mar-12 04:07N 36°53' E 030°42'0 0.0
2018-Mar-12 03:43N 36°53' E 030°42'0 0.0
2018-Mar-12 03:13N 36°53' E 030°42'0 0.0
2018-Mar-11 05:29N 36°53' E 030°42'1 2.6
2018-Mar-11 04:59N 36°52' E 030°43'1 0.1
2018-Mar-10 13:01N 36°53' E 030°42'0 0.3
2018-Mar-10 13:00N 36°53' E 030°42'2 3.4
2018-Mar-10 12:28N 36°51' E 030°43'2 1.5
2018-Mar-10 11:17N 36°53' E 030°42'1 3.6
2018-Mar-10 11:00N 36°52' E 030°43'1 0.1
2018-Mar-09 15:46N 36°53' E 030°42'1 4.5
2018-Mar-09 15:30N 36°52' E 030°42'0 0.9
2018-Mar-09 15:00N 36°52' E 030°42'1 0.4
2018-Mar-09 13:01N 36°53' E 030°42'1 5.3
2018-Mar-09 12:47N 36°52' E 030°43'1 0.7
2018-Mar-09 11:38N 36°51' E 030°44'1 7.0
2018-Mar-09 11:29N 36°52' E 030°43'0 0.0
2018-Mar-09 05:57N 36°52' E 030°43'0 0.0
2018-Mar-07 05:07N 36°53' E 030°42'1 5.3
2018-Mar-07 04:55N 36°52' E 030°43'1 0.1
2018-Mar-06 14:23N 36°53' E 030°42'1 2.5
2018-Mar-06 13:59N 36°52' E 030°43'1 0.1
2018-Mar-06 09:14N 36°52' E 030°42'0 1.1
2018-Mar-06 08:59N 36°52' E 030°42'1 0.5
2018-Mar-06 07:14N 36°53' E 030°42'0 2.1
2018-Mar-06 07:00N 36°53' E 030°42'0 0.0
2018-Mar-05 05:15N 36°52' E 030°43'1 2.2
2018-Mar-05 05:00N 36°52' E 030°43'1 0.1
2018-Mar-04 15:23N 36°53' E 030°42'2 3.9
2018-Mar-04 14:59N 36°51' E 030°43'2 0.5
2018-Mar-04 11:48N 36°53' E 030°42'1 2.6
2018-Mar-04 11:23N 36°52' E 030°43'1 0.0
2018-Mar-03 12:38N 36°53' E 030°42'1 7.0
2018-Mar-03 12:30N 36°52' E 030°43'2 2.2
2018-Mar-03 11:36N 36°51' E 030°45'1 5.7
2018-Mar-03 11:23N 36°51' E 030°44'2 0.3
2018-Mar-03 05:25N 36°53' E 030°42'1 1.9
2018-Mar-03 05:00N 36°52' E 030°42'1 0.0
2018-Mar-02 14:33N 36°52' E 030°43'0 4.2
2018-Mar-02 14:30N 36°52' E 030°43'2 1.0
2018-Mar-02 12:20N 36°51' E 030°45'3 6.6
2018-Mar-02 11:57N 36°52' E 030°43'  

Dump ship's entire track history